Flight Track Log - Related Links

Times and Time Zones

All times are in EDT time to prevent confusion due to time zone crossing. See the N589H flight status page for this flight to view local times or setup timezone preferences in your user account.

Time Position Orientation Groundspeed Altitude Reporting Facility
EDT Latitude Longitude Course Direction KTS MPH feet Rate Location/Type
Fri 10:27:26 PM 45.4553 -73.7339 180° South 137 158 700  Level Boston Center
Fri 10:28:27 PM 45.4078 -73.7325 179° South 167 192 2,500 1,770 Climbing Boston Center
Fri 10:29:28 PM 45.3533 -73.7397 185° South 179 206 4,300 1,916 Climbing Boston Center
Fri 10:30:26 PM 45.3069 -73.7747 208° Southwest 192 221 6,300 1,967 Climbing Boston Center
Fri 10:31:30 PM 45.2578 -73.8078 205° Southwest 191 220 8,300 1,694 Climbing Boston Center
Fri 10:32:00 PM 44.9608 -74.0833 180° South  Level FlightAware Approximate
Fri 10:32:30 PM 45.2028 -73.8428 204° Southwest 211 243 9,800  Level Boston Center
Fri 10:33:31 PM 45.1408 -73.8808 203° Southwest 237 273 11,300 1,462 Climbing Boston Center
Fri 10:34:29 PM 45.0769 -73.9203 204° Southwest 248 285 12,700 1,475 Climbing Boston Center
Fri 10:35:33 PM 45.0114 -73.9608 204° Southwest 257 296 14,300 1,475 Climbing Boston Center
Fri 10:36:31 PM 44.9419 -74.0156 209° Southwest 253 291 15,700 1,563 Climbing Boston Center
Fri 10:37:32 PM 44.8822 -74.0631 209° Southwest 252 290 17,400 1,686 Climbing Boston Center
Fri 10:38:32 PM 44.8178 -74.1106 208° Southwest 248 285 19,100 1,574 Climbing Boston Center
Fri 10:39:34 PM 44.7589 -74.1556 208° Southwest 246 283 20,600 1,525 Climbing Boston Center
Fri 10:40:34 PM 44.7008 -74.2011 209° Southwest 244 281 22,200 1,537 Climbing Boston Center
Fri 10:41:35 PM 44.6433 -74.2444 208° Southwest 239 275 23,700 836 Climbing Boston Center
Fri 10:42:36 PM 44.5822 -74.2922 209° Southwest 249 287 23,900 146 Climbing Boston Center
Fri 10:43:38 PM 44.5131 -74.3478 210° Southwest 279 321 24,000 49 Climbing Boston Center
Fri 10:44:39 PM 44.4400 -74.4008 207° Southwest 301 346 24,000  Level Boston Center
Fri 10:45:40 PM 44.3636 -74.4603 209° Southwest 311 358 24,000  Level Boston Center
Fri 10:46:41 PM 44.2867 -74.5192 209° Southwest 313 360 24,000  Level Boston Center
Fri 10:47:42 PM 44.2089 -74.5764 208° Southwest 314 361 24,000  Level Boston Center
Fri 10:48:40 PM 44.1328 -74.6358 209° Southwest 314 361 24,000  Level Boston Center
Fri 10:49:42 PM 44.0556 -74.6928 208° Southwest 314 361 24,000  Level Boston Center
Fri 10:50:43 PM 43.9639 -74.7619 209° Southwest 314 361 24,000  Level Boston Center
Fri 10:51:44 PM 43.8875 -74.8192 208° Southwest 314 361 24,000  Level Boston Center
Fri 10:52:44 PM 43.8111 -74.8764 208° Southwest 314 361 24,000  Level Boston Center
Fri 10:53:46 PM 43.7353 -74.9339 209° Southwest 313 360 24,000  Level Boston Center
Fri 10:54:47 PM 43.6594 -74.9906 208° Southwest 313 360 24,000  Level Boston Center
Fri 10:55:48 PM 43.5839 -75.0458 208° Southwest 312 359 24,000  Level Boston Center
Fri 10:56:48 PM 43.5081 -75.1019 208° Southwest 311 358 24,000  Level Boston Center
Fri 10:57:50 PM 43.4319 -75.1581 208° Southwest 311 358 24,000  Level Boston Center
Fri 10:58:50 PM 43.3492 -75.2189 208° Southwest 309 356 24,000  Level Boston Center
Fri 10:59:51 PM 43.2756 -75.2722 208° Southwest 309 356 24,000  Level Boston Center
Fri 11:00:52 PM 43.2017 -75.3264 208° Southwest 303 349 24,000  Level Boston Center
Fri 11:01:53 PM 43.1275 -75.3808 208° Southwest 303 349 24,000  Level Boston Center
Fri 11:02:54 PM 43.0511 -75.4361 208° Southwest 309 356 24,000  Level Boston Center
Fri 11:03:54 PM 42.9758 -75.4903 208° Southwest 309 356 24,000  Level Boston Center
Fri 11:04:54 PM 42.9017 -75.5436 208° Southwest 305 351 24,000  Level Boston Center
Fri 11:05:53 PM 42.8283 -75.5969 208° Southwest 300 345 24,000  Level Boston Center
Fri 11:06:55 PM 42.7539 -75.6503 208° Southwest 301 346 24,000  Level Boston Center
Fri 11:07:55 PM 42.6817 -75.7017 208° Southwest 299 344 24,000  Level Boston Center
Fri 11:08:59 PM 42.6097 -75.7531 208° Southwest 294 338 24,000  Level Boston Center
Fri 11:10:00 PM 42.5369 -75.8050 208° Southwest 297 342 24,000  Level Boston Center
Fri 11:10:58 PM 42.4642 -75.8575 208° Southwest 297 342 24,000  Level Boston Center
Fri 11:12:00 PM 42.3914 -75.9072 207° Southwest 294 338 24,000  Level Boston Center
Fri 11:13:00 PM 42.3025 -75.9689 207° Southwest 299 344 24,000  Level Boston Center
Fri 11:14:01 PM 42.2328 -76.0197 208° Southwest 296 341 24,000  Level Boston Center
Fri 11:15:04 PM 42.1597 -76.0714 208° Southwest 298 343 24,000  Level Boston Center
Fri 11:16:03 PM 42.0864 -76.1219 207° Southwest 298 343 24,000  Level Boston Center
Fri 11:17:05 PM 42.0144 -76.1722 207° Southwest 296 341 24,000  Level Boston Center
Fri 11:18:02 PM 41.9356 -76.2269 207° Southwest 303 349 24,000  Level New York Center
Fri 11:19:02 PM 41.8622 -76.2767 207° Southwest 298 343 24,000  Level New York Center
Fri 11:20:02 PM 41.7911 -76.3292 209° Southwest 298 343 24,000  Level New York Center
Fri 11:21:02 PM 41.7200 -76.3789 208° Southwest 298 343 24,000  Level New York Center
Fri 11:22:02 PM 41.6514 -76.4258 207° Southwest 298 343 24,000  Level New York Center
Fri 11:23:02 PM 41.5783 -76.4725 206° Southwest 298 343 24,000  Level New York Center
Fri 11:24:02 PM 41.5050 -76.5244 208° Southwest 298 343 24,000  Level New York Center
Fri 11:25:02 PM 41.4317 -76.5733 207° Southwest 298 343 24,000  Level New York Center
Fri 11:26:02 PM 41.3542 -76.6275 208° Southwest 303 349 24,000  Level New York Center
Fri 11:27:02 PM 41.2828 -76.6767 207° Southwest 303 349 24,000  Level New York Center
Fri 11:28:02 PM 41.2053 -76.7278 206° Southwest 303 349 24,000  Level New York Center
Fri 11:29:02 PM 41.1297 -76.7792 207° Southwest 303 349 24,000  Level New York Center
Fri 11:30:02 PM 41.0564 -76.8303 208° Southwest 303 349 24,000  Level New York Center
Fri 11:31:02 PM 40.9808 -76.8814 207° Southwest 303 349 24,000  Level New York Center
Fri 11:32:02 PM 40.9053 -76.9322 207° Southwest 303 349 24,000  Level New York Center
Fri 11:33:02 PM 40.8256 -76.9825 206° Southwest 314 361 24,000  Level New York Center
Fri 11:34:02 PM 40.7456 -77.0383 208° Southwest 314 361 24,000  Level New York Center
Fri 11:35:02 PM 40.6678 -77.0886 206° Southwest 314 361 24,000  Level New York Center
Fri 11:36:02 PM 40.5897 -77.1417 207° Southwest 314 361 24,000  Level New York Center
Fri 11:37:02 PM 40.5100 -77.1917 205° Southwest 314 361 24,000  Level New York Center
Fri 11:38:02 PM 40.4319 -77.2444 207° Southwest 314 361 24,000  Level New York Center
Fri 11:39:02 PM 40.3475 -77.3019 207° Southwest 314 361 24,000  Level New York Center
Fri 11:40:02 PM 40.2697 -77.3544 207° Southwest 309 356 24,000  Level New York Center
Fri 11:41:50 PM 40.1225 -77.4444 205° Southwest 335 386 24,000  Level Washington Center
Fri 11:42:47 PM 40.0467 -77.4967 208° Southwest 335 386 24,000  Level Washington Center
Fri 11:43:48 PM 39.9644 -77.5486 206° Southwest 322 371 24,000  Level Washington Center
Fri 11:44:49 PM 39.8844 -77.6006 206° Southwest 322 371 24,000  Level Washington Center
Fri 11:45:49 PM 39.8064 -77.6522 207° Southwest 322 371 24,000  Level Washington Center
Fri 11:46:49 PM 39.7264 -77.7039 206° Southwest 322 371 24,000  Level Washington Center
Fri 11:47:50 PM 39.6483 -77.7636 211° Southwest 327 376 24,000  Level Washington Center
Fri 11:50:50 PM 39.4200 -77.9394 210° Southwest 327 376 24,000  Level Washington Center
Fri 11:51:49 PM 39.3439 -77.9961 210° Southwest 327 376 24,000  Level Washington Center
Fri 11:52:47 PM 39.2675 -78.0581 212° Southwest 327 376 24,000  Level Washington Center
Fri 11:53:48 PM 39.1914 -78.1144 210° Southwest 327 376 24,000  Level Washington Center
Fri 11:54:48 PM 39.1131 -78.1731 210° Southwest 327 376 24,000  Level Washington Center
Fri 11:55:49 PM 39.0367 -78.2319 211° Southwest 327 376 24,000  Level Washington Center
Fri 11:56:00 PM 39.0719 -78.1919 210° Southwest  Level FlightAware Approximate
Fri 11:56:49 PM 38.9581 -78.2906 210° Southwest 327 376 24,000  Level Washington Center
Fri 11:57:49 PM 38.8819 -78.3464 210° Southwest 327 376 24,000  Level Washington Center
Fri 11:58:49 PM 38.8119 -78.3997 211° Southwest 327 376 24,000  Level Washington Center
Fri 11:59:50 PM 38.7353 -78.4581 211° Southwest 327 376 24,000  Level Washington Center
Sat 12:00:48 AM 38.6589 -78.5136 210° Southwest 327 376 24,000  Level Washington Center
Sat 12:01:48 AM 38.5825 -78.5717 211° Southwest 327 376 24,000  Level Washington Center
Sat 12:02:48 AM 38.5039 -78.6322 211° Southwest 327 376 24,000  Level Washington Center
Sat 12:03:48 AM 38.4253 -78.6872 209° Southwest 327 376 24,000  Level Washington Center
Sat 12:04:49 AM 38.3486 -78.7450 211° Southwest 327 376 24,000  Level Washington Center
Sat 12:05:49 AM 38.2656 -78.8128 213° Southwest 327 376 24,000  Level Washington Center
Sat 12:06:49 AM 38.1869 -78.8703 210° Southwest 327 376 24,000  Level Washington Center
Sat 12:07:49 AM 38.1103 -78.9247 209° Southwest 327 376 24,000  Level Washington Center
Sat 12:08:48 AM 38.0400 -78.9772 210° Southwest 327 376 24,000  Level Washington Center
Sat 12:09:49 AM 37.9611 -79.0342 210° Southwest 327 376 24,000  Level Washington Center
Sat 12:10:48 AM 37.8825 -79.0911 210° Southwest 327 376 24,000  Level Washington Center
Sat 12:11:47 AM 37.8058 -79.1453 209° Southwest 327 376 24,000  Level Washington Center
Sat 12:12:47 AM 37.7164 -79.2067 209° Southwest 327 376 24,000  Level Washington Center
Sat 12:13:49 AM 37.6481 -79.2586 211° Southwest 332 382 24,000  Level Washington Center
Sat 12:14:50 AM 37.5606 -79.3200 209° Southwest 327 376 24,000  Level Washington Center
Sat 12:15:50 AM 37.4900 -79.3714 210° Southwest 327 376 24,000  Level Washington Center
Sat 12:16:48 AM 37.4025 -79.4325 209° Southwest 327 376 24,000  Level Washington Center
Sat 12:17:49 AM 37.3236 -79.4911 211° Southwest 327 376 24,000  Level Washington Center
Sat 12:18:49 AM 37.2444 -79.5472 209° Southwest 327 376 24,000  Level Washington Center
Sat 12:19:47 AM 37.1742 -79.5956 209° Southwest 327 376 24,000  Level Washington Center
Sat 12:20:49 AM 37.0969 -79.6514 210° Southwest 327 376 24,000  Level Washington Center
Sat 12:21:49 AM 37.0178 -79.7097 210° Southwest 327 376 24,000  Level Washington Center
Sat 12:22:47 AM 36.9389 -79.7653 209° Southwest 327 376 24,000  Level Washington Center
Sat 12:23:47 AM 36.8550 -79.8308 212° Southwest 327 376 24,000  Level Washington Center
Sat 12:24:47 AM 36.7778 -79.8914 212° Southwest 327 376 24,000  Level Washington Center
Sat 12:25:47 AM 36.7006 -79.9494 211° Southwest 327 376 24,000  Level Washington Center
Sat 12:26:49 AM 36.6233 -80.0072 211° Southwest 327 376 24,000  Level Washington Center
Sat 12:27:49 AM 36.5547 -80.0600 212° Southwest 327 376 24,000  Level Washington Center
Sat 12:28:47 AM 36.4772 -80.1178 211° Southwest 327 376 24,000  Level Washington Center
Sat 12:29:49 AM 36.4000 -80.1750 211° Southwest 327 376 24,000  Level Washington Center
Sat 12:30:48 AM 36.3122 -80.2369 210° Southwest 327 376 24,000  Level Washington Center
Sat 12:32:00 AM 36.2185 -80.2700 196° South  Level FlightAware Approximate
Sat 12:39:00 AM 35.7160 -80.6004 207° Southwest  Level FlightAware Approximate
Sat 12:40:00 AM 35.6439 -80.6464 207° Southwest  Level FlightAware Approximate
Sat 12:41:00 AM 35.5718 -80.6923 207° Southwest  Level FlightAware Approximate
Sat 12:42:00 AM 35.4985 -80.7349 219° Southwest  Level FlightAware Approximate
Sat 12:43:00 AM 35.4291 -80.7862 209° Southwest  Level FlightAware Approximate
Sat 12:44:00 AM 35.3585 -80.8353 211° Southwest  Level FlightAware Approximate
Sat 12:45:00 AM 35.2877 -80.8840 206° Southwest  Level FlightAware Approximate
Sat 12:46:00 AM 35.2148 -80.9278 206° Southwest  Level FlightAware Approximate
Sat 12:47:00 AM 35.2000 -80.9333 202° Southwest  Level FlightAware Approximate
Sat 12:48:00 AM 35.2137 -80.9491 202° Southwest  Level Estimated
Sat 12:49:00 AM 35.2137 -80.9491 202° Southwest  Level Estimated
Sat 12:50:00 AM 35.2137 -80.9491 202° Southwest  Level Estimated
Sat 12:51:00 AM 35.2137 -80.9491 202° Southwest  Level Estimated
Sat 12:52:00 AM 35.2137 -80.9491 202° Southwest  Level Estimated
Sat 12:53:00 AM 35.2137 -80.9491 202° Southwest  Level Estimated
Sat 12:54:00 AM 35.2137 -80.9491 202° Southwest  Level Estimated
Sat 12:55:00 AM 35.2137 -80.9491 202° Southwest  Level Estimated
Sat 12:56:00 AM 35.2137 -80.9491 202° Southwest  Level Estimated
Sat 12:57:00 AM 35.2137 -80.9491 202° Southwest  Level Estimated
Sat 12:58:00 AM 35.2137 -80.9491 202° Southwest  Level Estimated
Sat 12:59:00 AM 35.2137 -80.9491 202° Southwest  Level Estimated
Sat 01:00:00 AM 35.2137 -80.9491 202° Southwest  Level Estimated
Sat 01:01:00 AM 35.2137 -80.9491 202° Southwest  Level Estimated
Sat 01:02:00 AM 35.2137 -80.9491 202° Southwest  Level Estimated
Sat 01:03:00 AM 35.2137 -80.9491 202° Southwest  Level Estimated
Sat 01:04:00 AM 35.2137 -80.9491 202° Southwest  Level Estimated

Login

Don't have an account? Register now (free) for customized features, flight alerts, and more!